Russell, New York
Current Conditions -  °F | °C
As of 9:53 PM on Tuesday 25 Nov 2014 (Local Time) from KMSS Reporting Station
Clear Clear  
Wind Chill: 28°   Ceiling: Unl
Heat Index: 37°   Visibility: 10mi
Dew Point: 24°   Wind: 14mph
Humidity: 59%   Direction: 230°SW
Pressure: 30.07"   Gusts: 29mph
Location:  44.43°N, 75.15°W
Report Text: KMSS 260253Z AUTO 23012G25KT 10SM CLR 03/M04 A3007 RMK AO2 SLP188 T00281044 51035
Loading
Personal Weather Stations






























Interactive Weather Map New forecast layout! Learn more

10-Day Weather Forecast

Advertisements
Track Severe Weather on mobile